Terminal Aerodrome Forecast
Issued by NWS

Home | Current Version | Previous Version | Graphics & Text | Print | Product List | Glossary On
Versions: 1 2 3 4 5 6 7 8 9 10 11 12
000
FTUS43 KMPX 050520
TAFRWF
TAF
KRWF 050520Z 0506/0606 27006KT P6SM SKC
     FM051500 20008KT P6SM SKC
     FM060300 18013KT P6SM SCT150=

USA.gov is the U.S. government's official web portal to all federal, state and local government web resources and services.